| time (UTC) | temp F | wind direction | speed MPH | gust MPH | rain 1hr in | rain 24hr in | rain mn in | humidity % | barometer mb |
| 20260906043039 | 54 | 270 | 5.0 | 7.0 | 0.00 | 0.22 | 0.16 | 87 | 1005.8 |
| 20260906042017 | 54 | 270 | 4.0 | 8.0 | 0.00 | 0.22 | 0.16 | 87 | 1005.7 |
| 20260906041015 | 54 | 270 | 5.0 | 8.0 | 0.00 | 0.22 | 0.16 | 87 | 1005.5 |
| 20260906040534 | 54 | 270 | 5.0 | 8.0 | 0.00 | 0.22 | 0.16 | 87 | 1005.3 |
| 20260906035012 | 54 | 270 | 4.0 | 7.0 | 0.00 | 0.22 | 0.16 | 87 | 1005.0 |
| 20260906034019 | 54 | 270 | 5.0 | 7.0 | 0.00 | 0.22 | 0.16 | 87 | 1004.8 |
| 20260906033028 | 55 | 270 | 5.0 | 10.0 | 0.00 | 0.22 | 0.16 | 87 | 1004.7 |
| 20260906032015 | 55 | 280 | 5.0 | 10.0 | 0.00 | 0.22 | 0.16 | 88 | 1004.4 |
| 20260906031014 | 55 | 278 | 6.0 | 9.0 | 0.00 | 0.22 | 0.16 | 88 | 1004.2 |
| 20260906025500 | 55 | 275 | 5.0 | 9.0 | 0.00 | 0.22 | 0.16 | 88 | 1004.0 |
| 20260906024518 | 55 | 275 | 6.0 | 9.0 | 0.01 | 0.22 | 0.16 | 88 | 1003.9 |
| 20260906023456 | 55 | 278 | 7.0 | 10.0 | 0.02 | 0.22 | 0.16 | 88 | 1003.7 |
| 20260906022514 | 55 | 270 | 6.0 | 8.0 | 0.02 | 0.22 | 0.16 | 88 | 1003.5 |
| 20260906021453 | 55 | 265 | 5.0 | 7.0 | 0.02 | 0.22 | 0.16 | 88 | 1003.4 |
| 20260906020450 | 55 | 264 | 5.0 | 7.0 | 0.02 | 0.22 | 0.16 | 88 | 1003.3 |
| 20260906015508 | 55 | 277 | 6.0 | 12.0 | 0.02 | 0.21 | 0.15 | 88 | 1003.4 |
| 20260906014506 | 55 | 264 | 6.0 | 9.0 | 0.01 | 0.21 | 0.14 | 87 | 1003.4 |
| 20260906013504 | 55 | 260 | 4.0 | 7.0 | 0.00 | 0.20 | 0.13 | 87 | 1003.3 |
| 20260906012441 | 55 | 256 | 4.0 | 7.0 | 0.02 | 0.20 | 0.13 | 87 | 1003.1 |
| 20260906011440 | 55 | 253 | 4.0 | 7.0 | 0.02 | 0.20 | 0.13 | 87 | 1003.0 |
| 20260906010437 | 55 | 255 | 4.0 | 6.0 | 0.02 | 0.20 | 0.13 | 87 | 1002.9 |
| 20260906005456 | 55 | 259 | 5.0 | 9.0 | 0.02 | 0.20 | 0.13 | 87 | 1002.8 |
| 20260906004444 | 55 | 265 | 6.0 | 8.0 | 0.02 | 0.20 | 0.13 | 87 | 1002.8 |
| 20260906003432 | 55 | 258 | 5.0 | 8.0 | 0.02 | 0.20 | 0.13 | 86 | 1002.7 |
| 20260906002530 | 55 | 270 | 5.0 | 8.0 | 0.00 | 0.19 | 0.12 | 87 | 1002.7 |
| 20260906001428 | 56 | 280 | 6.0 | 9.0 | 0.00 | 0.19 | 0.12 | 87 | 1002.8 |
| 20260906000426 | 55 | 270 | 6.0 | 9.0 | 0.00 | 0.19 | 0.12 | 88 | 1002.7 |
| 20260905235425 | 55 | 257 | 6.0 | 8.0 | 0.00 | 0.19 | 0.12 | 88 | 1002.4 |
| 20260905234423 | 54 | 252 | 4.0 | 7.0 | 0.00 | 0.19 | 0.11 | 88 | 1002.2 |
| 20260905233420 | 54 | 250 | 5.0 | 7.0 | 0.00 | 0.19 | 0.11 | 88 | 1002.2 |
| 20260905232418 | 54 | 237 | 6.0 | 8.0 | 0.00 | 0.19 | 0.11 | 87 | 1002.1 |
| 20260905231416 | 54 | 234 | 7.0 | 11.0 | 0.00 | 0.19 | 0.11 | 87 | 1002.1 |
| 20260905230414 | 55 | 288 | 4.0 | 8.0 | 0.00 | 0.19 | 0.11 | 87 | 1002.1 |
| 20260905225431 | 55 | 280 | 5.0 | 9.0 | 0.00 | 0.19 | 0.11 | 87 | 1002.1 |
| 20260905224410 | 55 | 277 | 4.0 | 10.0 | 0.00 | 0.19 | 0.11 | 86 | 1002.1 |
| 20260905223408 | 55 | 298 | 7.0 | 11.0 | 0.01 | 0.19 | 0.11 | 86 | 1002.1 |
| 20260905222406 | 55 | 294 | 6.0 | 11.0 | 0.08 | 0.19 | 0.11 | 85 | 1002.1 |
| 20260905221424 | 55 | 262 | 5.0 | 12.0 | 0.11 | 0.19 | 0.11 | 85 | 1002.0 |
| 20260905220402 | 55 | 245 | 4.0 | 6.0 | 0.11 | 0.19 | 0.11 | 84 | 1002.0 |
| 20260905215400 | 55 | 243 | 5.0 | 8.0 | 0.11 | 0.19 | 0.11 | 84 | 1002.0 |
| 20260905214418 | 55 | 251 | 4.0 | 6.0 | 0.11 | 0.19 | 0.11 | 83 | 1002.0 |
| 20260905213356 | 56 | 283 | 7.0 | 10.0 | 0.10 | 0.17 | 0.10 | 83 | 1002.0 |
| 20260905212414 | 57 | 287 | 7.0 | 20.0 | 0.03 | 0.10 | 0.03 | 81 | 1002.0 |
| 20260905211352 | 58 | 282 | 7.0 | 13.0 | 0.00 | 0.08 | 0.00 | 82 | 1001.7 |
| 20260905210350 | 58 | 261 | 4.0 | 8.0 | 0.00 | 0.08 | 0.00 | 82 | 1001.4 |
| 20260905205348 | 58 | 260 | 4.0 | 7.0 | 0.00 | 0.08 | 0.08 | 82 | 1001.2 |
| 20260905204405 | 57 | 261 | 4.0 | 7.0 | 0.00 | 0.08 | 0.08 | 82 | 1001.3 |
| 20260905203343 | 57 | 262 | 4.0 | 6.0 | 0.00 | 0.08 | 0.08 | 82 | 1001.2 |
| 20260905202341 | 57 | 259 | 4.0 | 6.0 | 0.00 | 0.08 | 0.08 | 82 | 1001.2 |
| 20260905201340 | 58 | 260 | 4.0 | 7.0 | 0.00 | 0.08 | 0.08 | 81 | 1001.1 |
| 20260905200357 | 58 | 259 | 4.0 | 6.0 | 0.00 | 0.08 | 0.08 | 80 | 1001.0 |
| 20260905195338 | 58 | 259 | 4.0 | 7.0 | 0.00 | 0.08 | 0.08 | 80 | 1000.9 |
| 20260905190326 | 60 | 259 | 4.0 | 7.0 | 0.00 | 0.08 | 0.08 | 79 | 1000.8 |
| 20260905185324 | 60 | 264 | 4.0 | 7.0 | 0.00 | 0.08 | 0.08 | 79 | 1000.8 |
| 20260905184322 | 60 | 260 | 4.0 | 6.0 | 0.00 | 0.08 | 0.08 | 79 | 1000.9 |
| 20260905183321 | 60 | 260 | 4.0 | 6.0 | 0.00 | 0.08 | 0.08 | 79 | 1000.8 |
| 20260905182338 | 60 | 263 | 4.0 | 7.0 | 0.00 | 0.08 | 0.08 | 79 | 1000.7 |
| 20260905181316 | 60 | 263 | 4.0 | 7.0 | 0.00 | 0.08 | 0.08 | 79 | 1000.7 |
| 20260905180314 | 60 | 264 | 4.0 | 7.0 | 0.00 | 0.08 | 0.08 | 79 | 1000.6 |
| 20260905175312 | 60 | 264 | 4.0 | 9.0 | 0.00 | 0.08 | 0.08 | 78 | 1000.5 |
| 20260905174311 | 60 | 265 | 4.0 | 6.0 | 0.00 | 0.08 | 0.08 | 78 | 1000.4 |
| 20260905173309 | 61 | 263 | 4.0 | 7.0 | 0.00 | 0.08 | 0.08 | 78 | 1000.3 |
| 20260905172306 | 61 | 261 | 4.0 | 7.0 | 0.00 | 0.08 | 0.08 | 77 | 1000.1 |
| 20260905171313 | 61 | 265 | 4.0 | 6.0 | 0.00 | 0.08 | 0.08 | 77 | 1000.0 |
| 20260905170302 | 61 | 270 | 4.0 | 7.0 | 0.00 | 0.08 | 0.08 | 76 | 1000.0 |
| 20260905165300 | 62 | 270 | 4.0 | 7.0 | 0.00 | 0.08 | 0.08 | 76 | 999.8 |
| 20260905164258 | 62 | 276 | 4.0 | 7.0 | 0.00 | 0.08 | 0.08 | 76 | 999.7 |
| 20260905163257 | 62 | 270 | 4.0 | 7.0 | 0.00 | 0.08 | 0.08 | 75 | 999.5 |
| 20260905162255 | 62 | 281 | 4.0 | 7.0 | 0.00 | 0.08 | 0.08 | 75 | 999.4 |
| 20260905161252 | 63 | 283 | 4.0 | 7.0 | 0.00 | 0.08 | 0.08 | 74 | 999.3 |
| 20260905160249 | 63 | 281 | 4.0 | 7.0 | 0.00 | 0.08 | 0.08 | 74 | 999.2 |
| 20260905155248 | 63 | 289 | 6.0 | 11.0 | 0.00 | 0.08 | 0.08 | 72 | 999.1 |
| 20260905154246 | 64 | 282 | 4.0 | 9.0 | 0.00 | 0.08 | 0.08 | 74 | 999.0 |
| 20260905153244 | 64 | 288 | 4.0 | 8.0 | 0.00 | 0.08 | 0.08 | 75 | 999.0 |
| 20260905152242 | 64 | 290 | 5.0 | 10.0 | 0.00 | 0.08 | 0.08 | 73 | 998.9 |
| 20260905151239 | 64 | 287 | 4.0 | 9.0 | 0.00 | 0.08 | 0.08 | 72 | 998.8 |
| 20260905150238 | 65 | 277 | 5.0 | 10.0 | 0.00 | 0.08 | 0.08 | 72 | 998.7 |
| 20260905145236 | 65 | 270 | 4.0 | 8.0 | 0.00 | 0.08 | 0.08 | 72 | 998.6 |
| 20260905144304 | 65 | 280 | 4.0 | 6.0 | 0.00 | 0.08 | 0.08 | 72 | 998.5 |
| 20260905143231 | 65 | 290 | 6.0 | 12.0 | 0.00 | 0.08 | 0.08 | 71 | 998.3 |
| 20260905142230 | 65 | 286 | 4.0 | 8.0 | 0.00 | 0.08 | 0.08 | 71 | 998.2 |
| 20260905141228 | 66 | 291 | 3.0 | 7.0 | 0.00 | 0.08 | 0.08 | 71 | 998.0 |
| 20260905140226 | 65 | 295 | 3.0 | 7.0 | 0.00 | 0.08 | 0.08 | 72 | 997.9 |
| 20260905135244 | 66 | 322 | 4.0 | 9.0 | 0.00 | 0.08 | 0.08 | 70 | 997.7 |
| 20260905134223 | 67 | 302 | 2.0 | 4.0 | 0.00 | 0.08 | 0.08 | 73 | 997.6 |
| 20260905133221 | 67 | 292 | 2.0 | 5.0 | 0.00 | 0.08 | 0.08 | 72 | 997.4 |
| 20260905132218 | 66 | 348 | 3.0 | 6.0 | 0.00 | 0.08 | 0.08 | 72 | 997.3 |
| 20260905131216 | 66 | 19 | 5.0 | 9.0 | 0.00 | 0.08 | 0.08 | 72 | 997.2 |
| 20260905130234 | 66 | 15 | 4.0 | 11.0 | 0.00 | 0.08 | 0.08 | 72 | 997.1 |
| 20260905125212 | 66 | 306 | 3.0 | 6.0 | 0.00 | 0.08 | 0.08 | 74 | 997.0 |
| 20260905124210 | 66 | 246 | 2.0 | 3.0 | 0.00 | 0.08 | 0.08 | 81 | 996.8 |
| 20260905123208 | 65 | 217 | 2.0 | 4.0 | 0.00 | 0.08 | 0.08 | 80 | 996.8 |
| 20260905122206 | 65 | 227 | 3.0 | 6.0 | 0.00 | 0.08 | 0.08 | 81 | 996.6 |
| 20260905121204 | 65 | 47 | 3.0 | 6.0 | 0.00 | 0.08 | 0.08 | 82 | 996.5 |
| 20260905120202 | 66 | 71 | 2.0 | 3.0 | 0.00 | 0.08 | 0.08 | 80 | 996.4 |
| 20260905115200 | 66 | 230 | 2.0 | 6.0 | 0.00 | 0.08 | 0.08 | 80 | 996.3 |
| 20260905114158 | 67 | 127 | 2.0 | 4.0 | 0.01 | 0.08 | 0.08 | 78 | 996.2 |
| 20260905113157 | 65 | 49 | 1.0 | 3.0 | 0.01 | 0.08 | 0.08 | 81 | 996.1 |
| 20260905112154 | 64 | 40 | 2.0 | 4.0 | 0.01 | 0.08 | 0.08 | 80 | 996.0 |
| 20260905111213 | 64 | 23 | 2.0 | 5.0 | 0.01 | 0.08 | 0.08 | 81 | 995.9 |
| 20260905110150 | 64 | 47 | 2.0 | 4.0 | 0.01 | 0.08 | 0.08 | 81 | 995.8 |
| 20260905105148 | 65 | 39 | 3.0 | 7.0 | 0.01 | 0.08 | 0.08 | 77 | 995.7 |
| 20260905104146 | 67 | 50 | 5.0 | 8.0 | 0.00 | 0.07 | 0.07 | 78 | 995.6 |
| 20260905103144 | 69 | 47 | 6.0 | 11.0 | 0.00 | 0.07 | 0.07 | 78 | 995.4 |
| 20260905102142 | 68 | 270 | 2.0 | 5.0 | 0.00 | 0.07 | 0.07 | 74 | 995.4 |
| 20260905101140 | 69 | 270 | 2.0 | 5.0 | 0.00 | 0.07 | 0.07 | 77 | 995.3 |
| 20260905100138 | 70 | 270 | 2.0 | 5.0 | 0.00 | 0.07 | 0.07 | 78 | 995.2 |
| 20260905095137 | 70 | 253 | 2.0 | 4.0 | 0.00 | 0.07 | 0.07 | 79 | 995.1 |
| 20260905094134 | 69 | 6 | 2.0 | 4.0 | 0.00 | 0.07 | 0.07 | 84 | 995.0 |
| 20260905093132 | 67 | 75 | 2.0 | 4.0 | 0.00 | 0.07 | 0.07 | 86 | 995.0 |
| 20260905092130 | 65 | 40 | 5.0 | 7.0 | 0.00 | 0.07 | 0.07 | 87 | 995.0 |
| 20260905091147 | 65 | 56 | 4.0 | 9.0 | 0.00 | 0.07 | 0.07 | 89 | 994.9 |
| 20260905090127 | 63 | 45 | 5.0 | 9.0 | 0.00 | 0.07 | 0.07 | 89 | 994.7 |
| 20260905085124 | 63 | 46 | 6.0 | 10.0 | 0.00 | 0.07 | 0.07 | 88 | 994.6 |
| 20260905084142 | 62 | 45 | 4.0 | 9.0 | 0.00 | 0.07 | 0.07 | 89 | 994.5 |
| 20260905083120 | 61 | 42 | 5.0 | 10.0 | 0.01 | 0.07 | 0.07 | 89 | 994.4 |
| 20260905082119 | 60 | 41 | 4.0 | 8.0 | 0.06 | 0.07 | 0.07 | 89 | 994.3 |
| 20260905081116 | 59 | 48 | 3.0 | 6.0 | 0.06 | 0.07 | 0.07 | 88 | 994.2 |
| 20260905080114 | 58 | 42 | 4.0 | 9.0 | 0.06 | 0.07 | 0.07 | 86 | 994.1 |
| 20260905075112 | 58 | 41 | 5.0 | 10.0 | 0.06 | 0.07 | 0.07 | 84 | 994.0 |
| 20260905074110 | 60 | 0 | 5.0 | 12.0 | 0.06 | 0.07 | 0.07 | 81 | 994.0 |
| 20260905073130 | 65 | 333 | 4.0 | 9.0 | 0.04 | 0.06 | 0.06 | 76 | 993.9 |
| 20260905072126 | 67 | 35 | 3.0 | 6.0 | 0.00 | 0.01 | 0.01 | 77 | 993.6 |
| 20260905071104 | 67 | 35 | 3.0 | 6.0 | 0.00 | 0.01 | 0.01 | 78 | 993.6 |
| 20260905070133 | 66 | 37 | 2.0 | 5.0 | 0.00 | 0.01 | 0.01 | 79 | 993.5 |
| 20260905065101 | 65 | 42 | 2.0 | 5.0 | 0.00 | 0.01 | 0.01 | 79 | 993.5 |
| 20260905064058 | 65 | 90 | 2.0 | 4.0 | 0.00 | 0.01 | 0.01 | 81 | 993.3 |
| 20260905063056 | 64 | 51 | 2.0 | 4.0 | 0.00 | 0.01 | 0.01 | 81 | 993.2 |
| 20260905062114 | 65 | 32 | 3.0 | 6.0 | 0.00 | 0.01 | 0.01 | 84 | 993.2 |
| 20260905061052 | 64 | 30 | 3.0 | 5.0 | 0.00 | 0.01 | 0.01 | 86 | 993.2 |
| 20260905060100 | 63 | 35 | 3.0 | 4.0 | 0.00 | 0.01 | 0.01 | 87 | 993.1 |
| 20260905055049 | 62 | 38 | 3.0 | 6.0 | 0.00 | 0.01 | 0.01 | 89 | 993.1 |
| 20260905054046 | 60 | 34 | 2.0 | 4.0 | 0.00 | 0.01 | 0.01 | 89 | 992.9 |
| 20260905053044 | 58 | 32 | 2.0 | 4.0 | 0.00 | 0.01 | 0.01 | 89 | 992.9 |
| 20260905052043 | 57 | 36 | 3.0 | 5.0 | 0.00 | 0.01 | 0.01 | 89 | 993.0 |
| 20260905051059 | 57 | 26 | 2.0 | 4.0 | 0.00 | 0.01 | 0.01 | 88 | 993.0 |
| 20260905050042 | 57 | 29 | 4.0 | 7.0 | 0.00 | 0.02 | 0.01 | 88 | 993.0 |
| 20260905045035 | 56 | 26 | 3.0 | 4.0 | 0.00 | 0.02 | 0.01 | 88 | 993.1 |
| 20260905044035 | 56 | 23 | 2.0 | 5.0 | 0.00 | 0.02 | 0.01 | 88 | 993.1 |